Back to Top

Language: 

My Weather Underground Personal Weather Station Historical Data with Graphs...

Delerius Weather Station Historical Data
Daily Summary for February 22, 2017 Units:  Metric    English   Both
« Previous Day
Next Day »
Daily Weekly Monthly Yearly Custom
  High: Low: Average:
Temperature: 11.6 °C 7 °C 9.4 °C
Dew Point: 9.7 °C 3.8 °C 6.3 °C
Humidity: 93 % 62 % 81 %
Wind Speed: 48.3 km/h 0 km/h 26.2 km/h
Wind Gust: 62.8 km/h - -
Wind:- - West
Pressure: 1003.6 hPa 999.5 hPa -
Precipitation: 1.78 mm    
Historical Graphs
 
 
Tabular Data for February 22, 2017
Time Temperature Dew Point Pressure Wind Wind Speed Wind Gust Humidity Rainfall Rate (Hourly) solar Conditions
00:00 11.3 °C 9.7 °C 1000.9 hPa West 37 km/h 48.3 km/h 90 % 0 mm 0 W/m2
00:05 11.2 °C 9.7 °C 1000.9 hPa WSW 35.4 km/h 48.3 km/h 90 % 0 mm 0 W/m2
00:15 11.1 °C 9.6 °C 1000.9 hPa WNW 35.4 km/h 35.4 km/h 90 % 0 mm 0 W/m2
00:20 11.1 °C 9.6 °C 1000.6 hPa West 37 km/h 56.3 km/h 90 % 0 mm 0 W/m2
00:30 11.1 °C 9.7 °C 1000.6 hPa WNW 37 km/h 48.3 km/h 91 % 0 mm 0 W/m2
00:35 11 °C 9.6 °C 1000.6 hPa West 37 km/h 48.3 km/h 91 % 0 mm 0 W/m2
00:40 11 °C 9.6 °C 1000.6 hPa West 37 km/h 38.6 km/h 91 % 0 mm 0 W/m2
00:45 10.9 °C 9.6 °C 1000.6 hPa WNW 35.4 km/h 38.6 km/h 91 % 0 mm 0 W/m2
00:50 10.9 °C 9.6 °C 1000.2 hPa West 35.4 km/h 35.4 km/h 91 % 0 mm 0 W/m2
01:00 10.9 °C 9.6 °C 1000.2 hPa West 33.8 km/h 37 km/h 91 % 0 mm 0 W/m2
01:10 11 °C 9.4 °C 999.5 hPa West 37 km/h 62.8 km/h 90 % 0 mm 0 W/m2
01:15 11.1 °C 9.4 °C 999.5 hPa WNW 41.8 km/h 62.8 km/h 89 % 0 mm 0 W/m2
01:20 11.3 °C 9.4 °C 999.5 hPa West 45.1 km/h 62.8 km/h 88 % 0 mm 0 W/m2
01:25 11.4 °C 9.3 °C 999.5 hPa West 46.7 km/h 62.8 km/h 87 % 0 mm 0 W/m2
01:30 11.5 °C 9.2 °C 999.9 hPa West 48.3 km/h 48.3 km/h 86 % 0 mm 0 W/m2
01:40 11.6 °C 9.3 °C 999.9 hPa WNW 48.3 km/h 62.8 km/h 86 % 0 mm 0 W/m2
01:50 11.5 °C 9.4 °C 1000.6 hPa WSW 43.5 km/h 43.5 km/h 87 % 0 mm 0 W/m2
01:55 11.3 °C 9.4 °C 1000.2 hPa SW 41.8 km/h 62.8 km/h 88 % 0 mm 0 W/m2
02:00 11.2 °C 9.3 °C 1000.6 hPa West 41.8 km/h 62.8 km/h 88 % 0 mm 0 W/m2
02:05 11.2 °C 9.3 °C 1000.6 hPa West 41.8 km/h 62.8 km/h 88 % 0 mm 0 W/m2
02:15 11.2 °C 9.5 °C 1000.6 hPa West 43.5 km/h 62.8 km/h 89 % 0 mm 0 W/m2
02:20 11.1 °C 9.3 °C 1000.9 hPa WNW 46.7 km/h 46.7 km/h 89 % 0 mm 0 W/m2
02:30 10.9 °C 9.4 °C 1000.9 hPa West 40.2 km/h 62.8 km/h 90 % 0 mm 0 W/m2
02:35 11 °C 9.4 °C 1001.2 hPa WNW 38.6 km/h 62.8 km/h 90 % 0 mm 0 W/m2
02:40 11.1 °C 9.2 °C 1001.2 hPa West 38.6 km/h 38.6 km/h 88 % 0 mm 0 W/m2
02:45 11.1 °C 9.1 °C 1001.2 hPa West 37 km/h 62.8 km/h 87 % 0 mm 0 W/m2
02:50 11.3 °C 9 °C 1001.2 hPa WNW 40.2 km/h 40.2 km/h 86 % 0 mm 0 W/m2
02:55 11.4 °C 8.9 °C 1001.2 hPa WNW 45.1 km/h 45.1 km/h 85 % 0 mm 0 W/m2
03:00 11.4 °C 8.9 °C 1000.9 hPa WNW 43.5 km/h 43.5 km/h 85 % 0 mm 0 W/m2
03:05 11.4 °C 8.8 °C 1000.9 hPa West 41.8 km/h 45.1 km/h 84 % 0 mm 0 W/m2
03:15 11.3 °C 8.8 °C 1001.2 hPa West 37 km/h 62.8 km/h 85 % 0 mm 0 W/m2
03:20 11.3 °C 8.8 °C 1001.2 hPa West 38.6 km/h 62.8 km/h 85 % 0 mm 0 W/m2
03:25 11.2 °C 8.9 °C 1001.2 hPa WNW 38.6 km/h 62.8 km/h 86 % 0 mm 0 W/m2
03:30 11 °C 8.9 °C 1001.2 hPa West 38.6 km/h 38.6 km/h 87 % 0 mm 0 W/m2
03:35 10.8 °C 8.9 °C 1001.2 hPa NW 37 km/h 62.8 km/h 88 % 0 mm 0 W/m2
03:45 10.7 °C 8.9 °C 1001.2 hPa West 33.8 km/h 33.8 km/h 89 % 0 mm 0 W/m2
03:50 10.6 °C 8.7 °C 1001.2 hPa West 33.8 km/h 33.8 km/h 88 % 0 mm 0 W/m2
04:00 10.6 °C 8.7 °C 1001.6 hPa WNW 33.8 km/h 62.8 km/h 88 % 0 mm 0 W/m2
04:05 10.5 °C 8.6 °C 1001.6 hPa WNW 33.8 km/h 62.8 km/h 88 % 0 mm 0 W/m2
04:10 10.5 °C 8.6 °C 1001.6 hPa West 35.4 km/h 62.8 km/h 88 % 0 mm 0 W/m2
04:20 10.3 °C 8.3 °C 1001.6 hPa WNW 32.2 km/h 32.2 km/h 87 % 0 mm 0 W/m2
04:25 10.2 °C 8.2 °C 1001.6 hPa WNW 32.2 km/h 62.8 km/h 87 % 0 mm 0 W/m2
04:30 10.1 °C 8.2 °C 1001.6 hPa West 32.2 km/h 32.2 km/h 88 % 0 mm 0 W/m2
04:35 10 °C 8.1 °C 1001.6 hPa West 29 km/h 45.1 km/h 88 % 0 mm 0 W/m2
04:40 9.9 °C 8 °C 1001.9 hPa WNW 29 km/h 62.8 km/h 88 % 0 mm 0 W/m2
04:45 9.9 °C 8 °C 1001.9 hPa NW 32.2 km/h 62.8 km/h 88 % 0 mm 0 W/m2
04:50 9.8 °C 7.9 °C 1001.9 hPa WNW 32.2 km/h 62.8 km/h 88 % 0 mm 0 W/m2
04:55 9.8 °C 7.9 °C 1001.9 hPa West 30.6 km/h 62.8 km/h 88 % 0 mm 0 W/m2
05:05 9.5 °C 7.4 °C 1001.9 hPa WNW 32.2 km/h 62.8 km/h 87 % 0 mm 0 W/m2
05:10 9.4 °C 7.5 °C 1001.6 hPa WNW 32.2 km/h 32.2 km/h 88 % 0 mm 0 W/m2
05:15 9.3 °C 7.4 °C 1001.9 hPa WNW 30.6 km/h 62.8 km/h 88 % 0 mm 0 W/m2
05:20 9.2 °C 7.3 °C 1001.9 hPa WNW 25.7 km/h 25.7 km/h 88 % 0 mm 0 W/m2
05:25 9.1 °C 7.3 °C 1001.9 hPa NW 24.1 km/h 33.8 km/h 89 % 0 mm 0 W/m2
05:30 9 °C 7.3 °C 1001.9 hPa WSW 27.4 km/h 62.8 km/h 89 % 0 mm 0 W/m2
05:35 8.8 °C 7.1 °C 1001.9 hPa WNW 32.2 km/h 62.8 km/h 89 % 0 mm 0 W/m2
05:40 8.8 °C 7.1 °C 1001.9 hPa WNW 33.8 km/h 33.8 km/h 89 % 0 mm 0 W/m2
05:45 8.7 °C 6.9 °C 1001.9 hPa WNW 30.6 km/h 38.6 km/h 89 % 0 mm 0 W/m2
05:55 8.6 °C 6.3 °C 1001.9 hPa West 33.8 km/h 62.8 km/h 86 % 0 mm 0 W/m2
06:00 8.6 °C 6 °C 1001.9 hPa WNW 33.8 km/h 33.8 km/h 84 % 0 mm 0 W/m2
06:05 8.5 °C 5.9 °C 1001.9 hPa WNW 35.4 km/h 37 km/h 84 % 0 mm 0 W/m2
06:10 8.4 °C 5.9 °C 1001.9 hPa West 35.4 km/h 62.8 km/h 84 % 0 mm 0 W/m2
06:15 8.3 °C 5.8 °C 1001.9 hPa West 37 km/h 62.8 km/h 84 % 0 mm 0 W/m2
06:20 8.3 °C 5.7 °C 1001.9 hPa WNW 35.4 km/h 62.8 km/h 84 % 0 mm 0 W/m2
06:25 8.2 °C 5.6 °C 1001.9 hPa WNW 33.8 km/h 62.8 km/h 84 % 0 mm 0 W/m2
06:30 8.1 °C 5.7 °C 1001.9 hPa WSW 32.2 km/h 32.2 km/h 85 % 0 mm 0 W/m2
06:40 7.9 °C 5.4 °C 1001.9 hPa West 30.6 km/h 30.6 km/h 84 % 0 mm 0 W/m2
06:45 7.9 °C 5.3 °C 1002.3 hPa WNW 32.2 km/h 38.6 km/h 84 % 0 mm 0 W/m2
06:50 7.8 °C 5.1 °C 1002.3 hPa West 33.8 km/h 33.8 km/h 83 % 0 mm 0 W/m2
06:55 7.8 °C 4.9 °C 1002.3 hPa WNW 32.2 km/h 35.4 km/h 82 % 0 mm 0 W/m2
07:00 7.8 °C 4.9 °C 1002.3 hPa West 32.2 km/h 62.8 km/h 82 % 0 mm 0 W/m2
07:05 7.8 °C 4.9 °C 1001.9 hPa West 30.6 km/h 62.8 km/h 82 % 0 mm 0 W/m2
07:10 7.8 °C 4.9 °C 1001.9 hPa West 32.2 km/h 32.2 km/h 82 % 0 mm 0 W/m2
07:20 7.8 °C 5.3 °C 1001.9 hPa WNW 32.2 km/h 62.8 km/h 84 % 0 mm 7 W/m2
07:30 8.1 °C 5.5 °C 1001.9 hPa WNW 35.4 km/h 35.4 km/h 84 % 0 mm 14 W/m2
07:35 8.1 °C 5.5 °C 1001.9 hPa West 32.2 km/h 62.8 km/h 84 % 0 mm 19 W/m2
07:40 8.1 °C 5.5 °C 1002.3 hPa West 33.8 km/h 62.8 km/h 84 % 0 mm 25 W/m2
07:45 8.2 °C 5.6 °C 1001.9 hPa West 35.4 km/h 62.8 km/h 84 % 0 mm 30 W/m2
07:50 8.3 °C 5.7 °C 1002.3 hPa West 37 km/h 62.8 km/h 84 % 0 mm 35 W/m2
08:00 8.3 °C 5.9 °C 1001.9 hPa West 35.4 km/h 62.8 km/h 85 % 0 mm 47 W/m2
08:05 8.4 °C 6 °C 1001.9 hPa West 37 km/h 62.8 km/h 85 % 0 mm 56 W/m2
08:15 8.4 °C 5.9 °C 1001.6 hPa NW 37 km/h 62.8 km/h 84 % 0 mm 72 W/m2
08:20 8.4 °C 5.8 °C 1001.9 hPa WNW 33.8 km/h 33.8 km/h 84 % 0 mm 72 W/m2
08:25 8.5 °C 5.6 °C 1001.9 hPa West 35.4 km/h 35.4 km/h 82 % 0 mm 95 W/m2
08:30 8.6 °C 5.7 °C 1001.9 hPa West 37 km/h 62.8 km/h 82 % 0 mm 123 W/m2
08:35 8.6 °C 5.9 °C 1001.6 hPa WNW 37 km/h 62.8 km/h 83 % 0 mm 148 W/m2
08:40 8.7 °C 6 °C 1001.6 hPa West 35.4 km/h 35.4 km/h 83 % 0 mm 158 W/m2
08:45 8.8 °C 6.1 °C 1001.6 hPa WSW 33.8 km/h 62.8 km/h 83 % 0 mm 156 W/m2
08:55 9 °C 6.1 °C 1001.6 hPa WNW 35.4 km/h 38.6 km/h 82 % 0 mm 162 W/m2
09:00 9.1 °C 6 °C 1001.9 hPa NW 37 km/h 62.8 km/h 81 % 0 mm 206 W/m2
09:05 9.2 °C 6.1 °C 1001.9 hPa WNW 37 km/h 62.8 km/h 81 % 0 mm 190 W/m2
09:10 9.2 °C 6.1 °C 1001.9 hPa West 37 km/h 62.8 km/h 81 % 0 mm 199 W/m2
09:15 9.2 °C 6.1 °C 1001.9 hPa West 35.4 km/h 62.8 km/h 81 % 0 mm 209 W/m2
09:20 9.2 °C 5.9 °C 1001.9 hPa WNW 35.4 km/h 62.8 km/h 80 % 0 mm 237 W/m2
09:25 9.3 °C 6.1 °C 1001.6 hPa West 37 km/h 62.8 km/h 80 % 0 mm 243 W/m2
09:35 9.4 °C 6.2 °C 1001.6 hPa WNW 32.2 km/h 62.8 km/h 80 % 0 mm 279 W/m2
09:40 9.6 °C 6.3 °C 1001.9 hPa WNW 32.2 km/h 62.8 km/h 80 % 0 mm 264 W/m2
09:45 9.6 °C 6.3 °C 1001.9 hPa WNW 33.8 km/h 62.8 km/h 80 % 0 mm 283 W/m2
09:50 9.7 °C 6.3 °C 1002.3 hPa WNW 37 km/h 62.8 km/h 79 % 0 mm 313 W/m2
09:55 9.8 °C 6.1 °C 1002.3 hPa WNW 40.2 km/h 62.8 km/h 78 % 0 mm 338 W/m2
10:00 9.9 °C 6.2 °C 1001.9 hPa WNW 40.2 km/h 40.2 km/h 78 % 0 mm 315 W/m2
10:05 9.9 °C 6.3 °C 1002.3 hPa WNW 41.8 km/h 41.8 km/h 78 % 0 mm 323 W/m2
10:15 10.1 °C 6.4 °C 1002.3 hPa West 37 km/h 48.3 km/h 78 % 0 mm 278 W/m2
10:20 10.1 °C 6.6 °C 1002.6 hPa WNW 35.4 km/h 62.8 km/h 79 % 0 mm 237 W/m2
11:15 10.3 °C 6.1 °C 1002.9 hPa WNW 41.8 km/h 62.8 km/h 75 % 0 mm 209 W/m2
11:20 10.2 °C 6 °C 1002.6 hPa West 38.6 km/h 38.6 km/h 75 % 0 mm 246 W/m2
11:25 10.1 °C 6.1 °C 1002.6 hPa WSW 37 km/h 46.7 km/h 76 % 0 mm 258 W/m2
11:30 10.1 °C 5.9 °C 1002.6 hPa West 38.6 km/h 62.8 km/h 75 % 0 mm 313 W/m2
11:35 10.2 °C 6.1 °C 1002.9 hPa NW 40.2 km/h 62.8 km/h 76 % 0 mm 308 W/m2
11:40 10.3 °C 6.2 °C 1002.9 hPa WNW 37 km/h 62.8 km/h 76 % 0 mm 362 W/m2
11:45 10.2 °C 6 °C 1002.9 hPa West 35.4 km/h 62.8 km/h 75 % 0 mm 274 W/m2
11:55 10.2 °C 5 °C 1002.6 hPa WSW 40.2 km/h 40.2 km/h 70 % 0 mm 364 W/m2
12:05 10.3 °C 5.1 °C 1002.3 hPa WNW 41.8 km/h 45.1 km/h 70 % 0 mm 374 W/m2
12:10 10.4 °C 5.4 °C 1002.3 hPa West 38.6 km/h 38.6 km/h 71 % 0 mm 438 W/m2
12:15 10.5 °C 5.3 °C 1002.3 hPa West 40.2 km/h 40.2 km/h 70 % 0 mm 450 W/m2
12:20 10.6 °C 5.1 °C 1002.3 hPa NW 41.8 km/h 41.8 km/h 69 % 0 mm 278 W/m2
12:30 10.8 °C 5.3 °C 1002.3 hPa West 33.8 km/h 33.8 km/h 69 % 0 mm 427 W/m2
12:35 10.8 °C 4.9 °C 1002.3 hPa WNW 35.4 km/h 54.7 km/h 67 % 0 mm 441 W/m2
12:40 10.8 °C 4.5 °C 1002.3 hPa West 40.2 km/h 62.8 km/h 65 % 0 mm 468 W/m2
12:45 10.9 °C 4.8 °C 1002.3 hPa WNW 38.6 km/h 62.8 km/h 66 % 0 mm 459 W/m2
12:50 10.8 °C 4.7 °C 1002.3 hPa West 37 km/h 62.8 km/h 66 % 0 mm 413 W/m2
13:00 10.7 °C 4.6 °C 1002.6 hPa West 41.8 km/h 62.8 km/h 66 % 0 mm 323 W/m2
13:05 10.7 °C 4.6 °C 1002.3 hPa West 38.6 km/h 62.8 km/h 66 % 0 mm 443 W/m2
13:10 10.8 °C 4.9 °C 1002.3 hPa WNW 38.6 km/h 38.6 km/h 67 % 0 mm 480 W/m2
13:15 10.9 °C 4.8 °C 1002.3 hPa WNW 38.6 km/h 41.8 km/h 66 % 0 mm 471 W/m2
13:30 10.7 °C 4.4 °C 1002.3 hPa WNW 43.5 km/h 62.8 km/h 65 % 0 mm 446 W/m2
13:40 10.7 °C 4.1 °C 1002.3 hPa WNW 41.8 km/h 41.8 km/h 64 % 0 mm 422 W/m2
13:45 10.7 °C 4.4 °C 1002.3 hPa NW 37 km/h 62.8 km/h 65 % 0 mm 434 W/m2
13:50 10.8 °C 4.3 °C 1002.6 hPa WNW 33.8 km/h 62.8 km/h 64 % 0 mm 424 W/m2
13:55 10.7 °C 4.4 °C 1002.3 hPa NNW 37 km/h 62.8 km/h 65 % 0 mm 429 W/m2
14:00 10.8 °C 4.4 °C 1001.9 hPa WNW 37 km/h 37 km/h 65 % 0 mm 404 W/m2
14:10 10.7 °C 4.2 °C 1001.9 hPa WNW 37 km/h 37 km/h 64 % 0 mm 427 W/m2
14:15 10.8 °C 4 °C 1001.6 hPa West 35.4 km/h 62.8 km/h 63 % 0 mm 431 W/m2
14:20 10.9 °C 4.1 °C 1001.9 hPa West 32.2 km/h 62.8 km/h 63 % 0 mm 431 W/m2
14:25 10.8 °C 3.8 °C 1001.9 hPa WNW 35.4 km/h 62.8 km/h 62 % 0 mm 385 W/m2
14:30 10.8 °C 4 °C 1001.6 hPa WSW 35.4 km/h 35.4 km/h 63 % 0 mm 369 W/m2
14:40 10.9 °C 4.1 °C 1001.6 hPa NW 32.2 km/h 62.8 km/h 63 % 0 mm 439 W/m2
14:45 11 °C 4.4 °C 1001.6 hPa WNW 30.6 km/h 62.8 km/h 64 % 0 mm 441 W/m2
14:55 11 °C 4.2 °C 1001.6 hPa WNW 33.8 km/h 62.8 km/h 63 % 0 mm 383 W/m2
15:00 10.9 °C 4.4 °C 1001.6 hPa West 33.8 km/h 62.8 km/h 64 % 0 mm 318 W/m2
15:05 10.7 °C 4.4 °C 1001.6 hPa WNW 33.8 km/h 62.8 km/h 65 % 0 mm 265 W/m2
15:15 10.5 °C 4.6 °C 1001.9 hPa NW 32.2 km/h 62.8 km/h 67 % 0 mm 287 W/m2
15:20 10.4 °C 4.7 °C 1001.6 hPa West 30.6 km/h 62.8 km/h 68 % 0 mm 174 W/m2
15:25 10.2 °C 4.6 °C 1001.9 hPa NW 30.6 km/h 62.8 km/h 68 % 0 mm 183 W/m2
15:30 10.2 °C 4.9 °C 1001.9 hPa WSW 30.6 km/h 30.6 km/h 70 % 0 mm 258 W/m2
15:35 10.2 °C 4.8 °C 1001.9 hPa WNW 29 km/h 62.8 km/h 69 % 0 mm 174 W/m2
15:40 10.2 °C 4.7 °C 1001.9 hPa West 25.7 km/h 25.7 km/h 69 % 0 mm 172 W/m2
15:50 10 °C 4.8 °C 1001.9 hPa West 25.7 km/h 25.7 km/h 70 % 0 mm 146 W/m2
15:55 9.9 °C 4.9 °C 1001.9 hPa WNW 25.7 km/h 62.8 km/h 71 % 0 mm 137 W/m2
16:00 9.8 °C 4.9 °C 1002.3 hPa West 24.1 km/h 24.1 km/h 72 % 0 mm 111 W/m2
16:10 9.6 °C 4.6 °C 1002.3 hPa WNW 22.5 km/h 22.5 km/h 71 % 0 mm 95 W/m2
16:15 9.6 °C 4.8 °C 1002.3 hPa WNW 19.3 km/h 62.8 km/h 72 % 0 mm 86 W/m2
16:25 9.3 °C 4.6 °C 1002.3 hPa NW 22.5 km/h 62.8 km/h 72 % 0 mm 76 W/m2
16:30 9.3 °C 4.5 °C 1002.3 hPa WNW 24.1 km/h 24.1 km/h 72 % 0 mm 67 W/m2
16:35 9.2 °C 4.6 °C 1002.6 hPa WNW 22.5 km/h 62.8 km/h 73 % 0 mm 47 W/m2
16:40 9.1 °C 4.7 °C 1002.6 hPa WNW 19.3 km/h 62.8 km/h 74 % 0 mm 40 W/m2
16:45 9.1 °C 4.7 °C 1002.6 hPa WNW 17.7 km/h 62.8 km/h 74 % 0 mm 26 W/m2
16:55 9.1 °C 5.1 °C 1002.6 hPa NNW 12.9 km/h 62.8 km/h 76 % 0 mm 9 W/m2
17:00 9.1 °C 5.2 °C 1002.6 hPa NW 12.9 km/h 62.8 km/h 77 % 0 mm 7 W/m2
17:05 9 °C 5.2 °C 1002.6 hPa West 12.9 km/h 62.8 km/h 77 % 0 mm 5 W/m2
17:15 9.1 °C 5.2 °C 1002.9 hPa WNW 11.3 km/h 62.8 km/h 77 % 0 mm 9 W/m2
17:20 9.1 °C 5.4 °C 1002.9 hPa NW 9.7 km/h 9.7 km/h 78 % 0 mm 9 W/m2
17:30 9 °C 5.4 °C 1002.9 hPa WNW 6.4 km/h 62.8 km/h 78 % 0 mm 0 W/m2
17:35 9 °C 5.6 °C 1003.3 hPa West 8 km/h 62.8 km/h 79 % 0 mm 0 W/m2
17:40 9 °C 5.6 °C 1003.3 hPa WNW 6.4 km/h 6.4 km/h 79 % 0 mm 0 W/m2
17:45 9 °C 5.4 °C 1003.3 hPa WNW 4.8 km/h 8 km/h 78 % 0 mm 0 W/m2
17:50 9 °C 5.4 °C 1003.3 hPa NW 3.2 km/h 62.8 km/h 78 % 0 mm 0 W/m2
17:55 9 °C 5.4 °C 1002.9 hPa NW 6.4 km/h 62.8 km/h 78 % 0 mm 0 W/m2
18:05 8.9 °C 5.3 °C 1002.9 hPa West 8 km/h 62.8 km/h 78 % 0 mm 0 W/m2
18:10 8.9 °C 5.4 °C 1002.9 hPa WNW 8 km/h 62.8 km/h 79 % 0 mm 0 W/m2
18:15 8.9 °C 5.4 °C 1002.9 hPa West 8 km/h 62.8 km/h 79 % 0 mm 0 W/m2
18:20 8.9 °C 5.4 °C 1003.3 hPa West 9.7 km/h 9.7 km/h 79 % 0 mm 0 W/m2
18:25 8.9 °C 5.4 °C 1003.3 hPa West 8 km/h 62.8 km/h 79 % 0 mm 0 W/m2
18:35 8.8 °C 5.4 °C 1003.3 hPa West 8 km/h 62.8 km/h 79 % 0 mm 0 W/m2
18:45 8.8 °C 5.4 °C 1003.3 hPa West 3.2 km/h 6.4 km/h 79 % 0 mm 0 W/m2
18:50 8.8 °C 5.6 °C 1003.3 hPa West 4.8 km/h 4.8 km/h 80 % 0 mm 0 W/m2
18:55 8.8 °C 5.6 °C 1003.3 hPa WSW 4.8 km/h 8 km/h 80 % 0 mm 0 W/m2
19:00 8.8 °C 5.6 °C 1003.3 hPa WSW 4.8 km/h 4.8 km/h 80 % 0 mm 0 W/m2
19:10 8.9 °C 5.8 °C 1003.3 hPa WSW 8 km/h 8 km/h 81 % 0 mm 0 W/m2
19:15 8.9 °C 5.8 °C 1003.3 hPa WSW 6.4 km/h 62.8 km/h 81 % 0 mm 0 W/m2
19:20 8.9 °C 5.6 °C 1003.3 hPa WSW 9.7 km/h 62.8 km/h 80 % 0 mm 0 W/m2
19:25 8.9 °C 5.6 °C 1003.3 hPa WNW 11.3 km/h 62.8 km/h 80 % 0 mm 0 W/m2
19:30 8.9 °C 5.6 °C 1003.3 hPa West 9.7 km/h 9.7 km/h 80 % 0 mm 0 W/m2
19:35 8.8 °C 5.6 °C 1003.6 hPa West 6.4 km/h 11.3 km/h 80 % 0 mm 0 W/m2
19:45 8.8 °C 5.6 °C 1003.3 hPa West 8 km/h 62.8 km/h 80 % 0 mm 0 W/m2
19:50 8.8 °C 5.6 °C 1003.3 hPa West 8 km/h 8 km/h 80 % 0 mm 0 W/m2
19:55 8.8 °C 5.5 °C 1003.3 hPa WNW 8 km/h 62.8 km/h 80 % 0 mm 0 W/m2
20:00 8.8 °C 5.5 °C 1003.3 hPa WNW 8 km/h 8 km/h 80 % 0 mm 0 W/m2
20:10 8.7 °C 5.7 °C 1002.9 hPa WSW 6.4 km/h 8 km/h 81 % 0 mm 0 W/m2
20:20 8.7 °C 5.6 °C 1002.9 hPa West 6.4 km/h 8 km/h 81 % 0 mm 0 W/m2
20:25 8.6 °C 5.3 °C 1002.9 hPa WNW 8 km/h 14.5 km/h 80 % 0 mm 0 W/m2
20:30 8.6 °C 5.6 °C 1002.6 hPa West 8 km/h 9.7 km/h 81 % 0 mm 0 W/m2
20:35 8.6 °C 5.5 °C 1002.6 hPa West 8 km/h 9.7 km/h 81 % 0 mm 0 W/m2
20:40 8.6 °C 5.5 °C 1002.6 hPa West 8 km/h 9.7 km/h 81 % 0 mm 0 W/m2
20:50 8.4 °C 5.6 °C 1002.6 hPa West 9.7 km/h 11.3 km/h 82 % 0 mm 0 W/m2
20:55 8.4 °C 5.3 °C 1002.6 hPa West 11.3 km/h 11.3 km/h 81 % 0 mm 0 W/m2
21:05 8.3 °C 5.4 °C 1002.6 hPa West 8 km/h 20.9 km/h 82 % 0 mm 0 W/m2
21:10 8.2 °C 5.5 °C 1002.3 hPa West 6.4 km/h 6.4 km/h 83 % 0 mm 0 W/m2
21:15 8.2 °C 5.6 °C 1002.3 hPa West 4.8 km/h 20.9 km/h 84 % 0 mm 0 W/m2
21:25 8 °C 5.6 °C 1002.3 hPa SW 1.6 km/h 20.9 km/h 85 % 0 mm 0 W/m2
21:30 7.9 °C 5.6 °C 1001.9 hPa SW 1.6 km/h 20.9 km/h 85 % 0 mm 0 W/m2
21:35 7.9 °C 5.7 °C 1001.9 hPa SW 1.6 km/h 20.9 km/h 86 % 0 mm 0 W/m2
21:40 7.8 °C 5.6 °C 1001.9 hPa SW 1.6 km/h 20.9 km/h 86 % 0 mm 0 W/m2
21:45 7.8 °C 5.7 °C 1001.9 hPa SW 1.6 km/h 20.9 km/h 87 % 0 mm 0 W/m2
21:50 7.7 °C 5.7 °C 1001.9 hPa SW 3.2 km/h 3.2 km/h 87 % 0 mm 0 W/m2
22:00 7.7 °C 5.8 °C 1001.6 hPa SW 3.2 km/h 3.2 km/h 88 % 0 mm 0 W/m2
22:05 7.6 °C 5.7 °C 1001.6 hPa SW 1.6 km/h 20.9 km/h 88 % 0 mm 0 W/m2
22:10 7.6 °C 5.9 °C 1001.6 hPa SW 1.6 km/h 1.6 km/h 89 % 0 mm 0 W/m2
22:15 7.6 °C 5.9 °C 1001.6 hPa SW 1.6 km/h 20.9 km/h 89 % 0 mm 0 W/m2
22:25 7.5 °C 5.8 °C 1001.2 hPa SW 3.2 km/h 20.9 km/h 89 % 0 mm 0 W/m2
22:30 7.4 °C 5.9 °C 1001.2 hPa SW 3.2 km/h 3.2 km/h 90 % 0 mm 0 W/m2
22:40 7.4 °C 5.8 °C 1000.9 hPa Calm   20.9 km/h 90 % 0 mm 0 W/m2
22:45 7.3 °C 5.8 °C 1000.9 hPa Calm   20.9 km/h 90 % 0 mm 0 W/m2
22:50 7.3 °C 5.9 °C 1000.9 hPa Calm   20.9 km/h 91 % 0 mm 0 W/m2
22:55 7.3 °C 5.7 °C 1000.9 hPa SW 1.6 km/h 20.9 km/h 90 % 1.02 mm 0 W/m2
23:05 7.3 °C 5.9 °C 1000.6 hPa Calm   20.9 km/h 91 % 1.52 mm 0 W/m2
23:10 7.2 °C 5.8 °C 1000.6 hPa Calm   20.9 km/h 91 % 1.52 mm 0 W/m2
23:15 7.2 °C 6 °C 1000.6 hPa Calm   20.9 km/h 92 % 1.52 mm 0 W/m2
23:20 7.2 °C 6 °C 1000.2 hPa Calm   20.9 km/h 92 % 1.02 mm 0 W/m2
23:25 7.2 °C 5.9 °C 1000.2 hPa Calm   20.9 km/h 92 % 1.02 mm 0 W/m2
23:30 7.1 °C 5.9 °C 1000.2 hPa Calm   20.9 km/h 92 % 1.52 mm 0 W/m2
23:40 7 °C 5.9 °C 999.9 hPa Calm   20.9 km/h 93 % 1.52 mm 0 W/m2
23:45 7 °C 5.9 °C 999.5 hPa Calm   20.9 km/h 93 % 1.52 mm 0 W/m2
23:50 7 °C 5.9 °C 999.5 hPa Calm   20.9 km/h 93 % 1.78 mm 0 W/m2
Delerius-Weather
Compliments of Weather Underground - 2 mb

Data updates at regular intervals.